sensor_id;sensor_type;location;lat;lon;timestamp;temperature;humidity
1812;DHT22;904;47.814;11.134;2023-04-03T00:01:00;4.80;89.70
1812;DHT22;904;47.814;11.134;2023-04-03T00:03:28;4.70;89.30
1812;DHT22;904;47.814;11.134;2023-04-03T00:05:57;4.70;89.50
1812;DHT22;904;47.814;11.134;2023-04-03T00:08:24;4.70;89.80
1812;DHT22;904;47.814;11.134;2023-04-03T00:10:52;4.70;90.00
1812;DHT22;904;47.814;11.134;2023-04-03T00:13:19;4.70;89.90
1812;DHT22;904;47.814;11.134;2023-04-03T00:15:48;4.70;90.10
1812;DHT22;904;47.814;11.134;2023-04-03T00:18:17;4.70;90.40
1812;DHT22;904;47.814;11.134;2023-04-03T00:20:45;4.70;90.20
1812;DHT22;904;47.814;11.134;2023-04-03T00:23:14;4.60;90.20
1812;DHT22;904;47.814;11.134;2023-04-03T00:25:43;4.60;90.10
1812;DHT22;904;47.814;11.134;2023-04-03T00:28:11;4.70;90.20
1812;DHT22;904;47.814;11.134;2023-04-03T00:30:38;4.70;90.30
1812;DHT22;904;47.814;11.134;2023-04-03T00:33:06;4.70;90.30
1812;DHT22;904;47.814;11.134;2023-04-03T00:35:34;4.60;90.20
1812;DHT22;904;47.814;11.134;2023-04-03T00:38:02;4.60;90.40
1812;DHT22;904;47.814;11.134;2023-04-03T00:40:34;4.60;90.40
1812;DHT22;904;47.814;11.134;2023-04-03T00:43:01;4.60;90.60
1812;DHT22;904;47.814;11.134;2023-04-03T00:45:34;4.60;90.50
1812;DHT22;904;47.814;11.134;2023-04-03T00:48:05;4.60;90.60
1812;DHT22;904;47.814;11.134;2023-04-03T00:50:34;4.70;90.60
1812;DHT22;904;47.814;11.134;2023-04-03T00:53:03;4.70;90.70
1812;DHT22;904;47.814;11.134;2023-04-03T00:55:32;4.70;90.60
1812;DHT22;904;47.814;11.134;2023-04-03T00:58:01;4.70;90.60
1812;DHT22;904;47.814;11.134;2023-04-03T01:00:29;4.60;90.40
1812;DHT22;904;47.814;11.134;2023-04-03T01:02:59;4.60;90.60
1812;DHT22;904;47.814;11.134;2023-04-03T01:05:27;4.60;90.70
1812;DHT22;904;47.814;11.134;2023-04-03T01:07:54;4.60;90.60
1812;DHT22;904;47.814;11.134;2023-04-03T01:10:22;4.70;90.70
1812;DHT22;904;47.814;11.134;2023-04-03T01:12:51;4.70;90.70
1812;DHT22;904;47.814;11.134;2023-04-03T01:15:20;4.70;90.70
1812;DHT22;904;47.814;11.134;2023-04-03T01:17:50;4.70;90.90
1812;DHT22;904;47.814;11.134;2023-04-03T01:23:44;4.70;91.10
1812;DHT22;904;47.814;11.134;2023-04-03T01:26:14;4.70;91.40
1812;DHT22;904;47.814;11.134;2023-04-03T01:28:44;4.70;91.10
1812;DHT22;904;47.814;11.134;2023-04-03T01:31:16;4.70;91.00
1812;DHT22;904;47.814;11.134;2023-04-03T01:33:47;4.70;91.00
1812;DHT22;904;47.814;11.134;2023-04-03T01:36:17;4.80;91.30
1812;DHT22;904;47.814;11.134;2023-04-03T01:38:44;4.80;91.30
1812;DHT22;904;47.814;11.134;2023-04-03T01:41:12;4.80;91.20
1812;DHT22;904;47.814;11.134;2023-04-03T01:43:39;4.80;91.20
1812;DHT22;904;47.814;11.134;2023-04-03T01:46:10;4.80;91.20
1812;DHT22;904;47.814;11.134;2023-04-03T01:48:38;4.80;91.10
1812;DHT22;904;47.814;11.134;2023-04-03T01:51:11;4.80;91.20
1812;DHT22;904;47.814;11.134;2023-04-03T01:53:38;4.80;91.10
1812;DHT22;904;47.814;11.134;2023-04-03T01:56:06;4.80;91.10
1812;DHT22;904;47.814;11.134;2023-04-03T01:58:34;4.80;91.20
1812;DHT22;904;47.814;11.134;2023-04-03T02:01:01;4.80;91.30
1812;DHT22;904;47.814;11.134;2023-04-03T02:03:28;4.80;91.00
1812;DHT22;904;47.814;11.134;2023-04-03T02:05:56;4.80;91.00
1812;DHT22;904;47.814;11.134;2023-04-03T02:08:25;4.70;91.00
1812;DHT22;904;47.814;11.134;2023-04-03T02:10:52;4.70;91.10
1812;DHT22;904;47.814;11.134;2023-04-03T02:13:20;4.70;91.20
1812;DHT22;904;47.814;11.134;2023-04-03T02:15:47;4.70;91.30
1812;DHT22;904;47.814;11.134;2023-04-03T02:18:15;4.70;91.20
1812;DHT22;904;47.814;11.134;2023-04-03T02:20:42;4.70;91.10
1812;DHT22;904;47.814;11.134;2023-04-03T02:23:09;4.70;91.10
1812;DHT22;904;47.814;11.134;2023-04-03T02:25:38;4.70;91.20
1812;DHT22;904;47.814;11.134;2023-04-03T02:28:06;4.70;91.30
1812;DHT22;904;47.814;11.134;2023-04-03T02:30:33;4.70;91.30
1812;DHT22;904;47.814;11.134;2023-04-03T02:33:03;4.70;91.50
1812;DHT22;904;47.814;11.134;2023-04-03T02:35:32;4.70;91.50
1812;DHT22;904;47.814;11.134;2023-04-03T02:37:59;4.70;91.60
1812;DHT22;904;47.814;11.134;2023-04-03T02:40:27;4.70;91.60
1812;DHT22;904;47.814;11.134;2023-04-03T02:43:01;4.70;91.40
1812;DHT22;904;47.814;11.134;2023-04-03T02:45:29;4.70;91.60
1812;DHT22;904;47.814;11.134;2023-04-03T02:47:56;4.70;91.60
1812;DHT22;904;47.814;11.134;2023-04-03T02:50:25;4.70;91.60
1812;DHT22;904;47.814;11.134;2023-04-03T02:52:52;4.70;91.40
1812;DHT22;904;47.814;11.134;2023-04-03T02:55:21;4.70;91.50
1812;DHT22;904;47.814;11.134;2023-04-03T02:57:50;4.70;91.50
1812;DHT22;904;47.814;11.134;2023-04-03T03:00:20;4.70;91.50
1812;DHT22;904;47.814;11.134;2023-04-03T03:02:49;4.70;91.50
1812;DHT22;904;47.814;11.134;2023-04-03T03:05:17;4.70;91.50
1812;DHT22;904;47.814;11.134;2023-04-03T03:07:44;4.70;91.50
1812;DHT22;904;47.814;11.134;2023-04-03T03:10:11;4.70;91.60
1812;DHT22;904;47.814;11.134;2023-04-03T03:12:39;4.70;91.60
1812;DHT22;904;47.814;11.134;2023-04-03T03:15:07;4.70;91.60
1812;DHT22;904;47.814;11.134;2023-04-03T03:17:36;4.70;91.80
1812;DHT22;904;47.814;11.134;2023-04-03T03:20:04;4.70;91.90
1812;DHT22;904;47.814;11.134;2023-04-03T03:22:32;4.70;92.00
1812;DHT22;904;47.814;11.134;2023-04-03T03:25:00;4.70;92.10
1812;DHT22;904;47.814;11.134;2023-04-03T03:27:27;4.70;92.00
1812;DHT22;904;47.814;11.134;2023-04-03T03:29:55;4.70;92.10
1812;DHT22;904;47.814;11.134;2023-04-03T03:32:22;4.70;92.10
1812;DHT22;904;47.814;11.134;2023-04-03T03:34:51;4.70;92.00
1812;DHT22;904;47.814;11.134;2023-04-03T03:37:18;4.70;92.10
1812;DHT22;904;47.814;11.134;2023-04-03T03:39:45;4.70;92.00
1812;DHT22;904;47.814;11.134;2023-04-03T03:42:13;4.70;92.00
1812;DHT22;904;47.814;11.134;2023-04-03T03:44:40;4.70;91.80
1812;DHT22;904;47.814;11.134;2023-04-03T03:47:07;4.70;91.40
1812;DHT22;904;47.814;11.134;2023-04-03T03:49:36;4.70;91.30
1812;DHT22;904;47.814;11.134;2023-04-03T03:52:05;4.70;91.10
1812;DHT22;904;47.814;11.134;2023-04-03T03:54:36;4.70;91.10
1812;DHT22;904;47.814;11.134;2023-04-03T03:57:03;4.70;91.10
1812;DHT22;904;47.814;11.134;2023-04-03T03:59:30;4.70;90.90
1812;DHT22;904;47.814;11.134;2023-04-03T04:01:58;4.70;90.90
1812;DHT22;904;47.814;11.134;2023-04-03T04:04:26;4.60;90.90
1812;DHT22;904;47.814;11.134;2023-04-03T04:06:53;4.60;90.90
1812;DHT22;904;47.814;11.134;2023-04-03T04:09:23;4.60;90.90
1812;DHT22;904;47.814;11.134;2023-04-03T04:11:50;4.60;91.00
1812;DHT22;904;47.814;11.134;2023-04-03T04:14:18;4.60;91.10
1812;DHT22;904;47.814;11.134;2023-04-03T04:16:46;4.60;91.30
1812;DHT22;904;47.814;11.134;2023-04-03T04:19:13;4.50;91.40
1812;DHT22;904;47.814;11.134;2023-04-03T04:21:41;4.60;91.30
1812;DHT22;904;47.814;11.134;2023-04-03T04:24:08;4.60;91.60
1812;DHT22;904;47.814;11.134;2023-04-03T04:26:37;4.60;91.70
1812;DHT22;904;47.814;11.134;2023-04-03T04:29:05;4.60;91.60
1812;DHT22;904;47.814;11.134;2023-04-03T04:31:32;4.60;91.60
1812;DHT22;904;47.814;11.134;2023-04-03T04:33:59;4.60;91.60
1812;DHT22;904;47.814;11.134;2023-04-03T04:36:26;4.60;91.60
1812;DHT22;904;47.814;11.134;2023-04-03T04:38:54;4.60;91.60
1812;DHT22;904;47.814;11.134;2023-04-03T04:41:22;4.60;91.60
1812;DHT22;904;47.814;11.134;2023-04-03T04:43:51;4.60;91.60
1812;DHT22;904;47.814;11.134;2023-04-03T04:46:19;4.60;91.70
1812;DHT22;904;47.814;11.134;2023-04-03T04:48:49;4.60;91.70
1812;DHT22;904;47.814;11.134;2023-04-03T04:51:17;4.60;91.70
1812;DHT22;904;47.814;11.134;2023-04-03T04:53:44;4.60;91.50
1812;DHT22;904;47.814;11.134;2023-04-03T04:56:12;4.60;91.30
1812;DHT22;904;47.814;11.134;2023-04-03T04:58:43;4.60;91.10
1812;DHT22;904;47.814;11.134;2023-04-03T05:01:12;4.60;90.90
1812;DHT22;904;47.814;11.134;2023-04-03T05:03:39;4.60;91.10
1812;DHT22;904;47.814;11.134;2023-04-03T05:06:06;4.60;91.10
1812;DHT22;904;47.814;11.134;2023-04-03T05:08:34;4.60;91.10
1812;DHT22;904;47.814;11.134;2023-04-03T05:11:01;4.60;91.20
1812;DHT22;904;47.814;11.134;2023-04-03T05:13:29;4.60;91.40
1812;DHT22;904;47.814;11.134;2023-04-03T05:15:56;4.60;91.30
1812;DHT22;904;47.814;11.134;2023-04-03T05:18:25;4.60;91.10
1812;DHT22;904;47.814;11.134;2023-04-03T05:20:52;4.60;91.00
1812;DHT22;904;47.814;11.134;2023-04-03T05:23:22;4.50;91.00
1812;DHT22;904;47.814;11.134;2023-04-03T05:25:49;4.50;91.10
1812;DHT22;904;47.814;11.134;2023-04-03T05:28:16;4.50;91.30
1812;DHT22;904;47.814;11.134;2023-04-03T05:30:44;4.60;91.50
1812;DHT22;904;47.814;11.134;2023-04-03T05:33:16;4.60;91.60
1812;DHT22;904;47.814;11.134;2023-04-03T05:35:45;4.60;91.70
1812;DHT22;904;47.814;11.134;2023-04-03T05:38:17;4.60;91.70
1812;DHT22;904;47.814;11.134;2023-04-03T05:40:46;4.60;91.80
1812;DHT22;904;47.814;11.134;2023-04-03T05:43:22;4.60;91.70
1812;DHT22;904;47.814;11.134;2023-04-03T05:45:54;4.60;91.60
1812;DHT22;904;47.814;11.134;2023-04-03T05:48:25;4.60;91.60
1812;DHT22;904;47.814;11.134;2023-04-03T05:51:03;4.60;91.60
1812;DHT22;904;47.814;11.134;2023-04-03T05:53:35;4.70;91.60
1812;DHT22;904;47.814;11.134;2023-04-03T05:56:04;4.70;91.40
1812;DHT22;904;47.814;11.134;2023-04-03T05:58:31;4.70;91.30
1812;DHT22;904;47.814;11.134;2023-04-03T06:01:00;4.70;91.30
1812;DHT22;904;47.814;11.134;2023-04-03T06:03:30;4.70;91.30
1812;DHT22;904;47.814;11.134;2023-04-03T06:05:57;4.70;91.30
1812;DHT22;904;47.814;11.134;2023-04-03T06:08:26;4.80;91.30
1812;DHT22;904;47.814;11.134;2023-04-03T06:10:53;4.80;91.30
1812;DHT22;904;47.814;11.134;2023-04-03T06:13:21;4.80;91.30
1812;DHT22;904;47.814;11.134;2023-04-03T06:15:49;4.80;91.40
1812;DHT22;904;47.814;11.134;2023-04-03T06:18:22;4.80;91.40
1812;DHT22;904;47.814;11.134;2023-04-03T06:20:49;4.80;91.30
1812;DHT22;904;47.814;11.134;2023-04-03T06:23:17;4.80;91.30
1812;DHT22;904;47.814;11.134;2023-04-03T06:25:46;4.90;91.40
1812;DHT22;904;47.814;11.134;2023-04-03T06:28:14;4.90;91.50
1812;DHT22;904;47.814;11.134;2023-04-03T06:30:43;4.90;91.50
1812;DHT22;904;47.814;11.134;2023-04-03T06:33:13;5.00;91.80
1812;DHT22;904;47.814;11.134;2023-04-03T06:35:47;5.00;91.20
1812;DHT22;904;47.814;11.134;2023-04-03T06:38:19;5.00;91.10
1812;DHT22;904;47.814;11.134;2023-04-03T06:40:52;5.10;90.90
1812;DHT22;904;47.814;11.134;2023-04-03T06:43:20;5.10;90.90
1812;DHT22;904;47.814;11.134;2023-04-03T06:45:47;5.10;91.20
1812;DHT22;904;47.814;11.134;2023-04-03T06:48:14;5.20;90.90
1812;DHT22;904;47.814;11.134;2023-04-03T06:50:42;5.20;90.30
1812;DHT22;904;47.814;11.134;2023-04-03T06:53:10;5.20;90.30
1812;DHT22;904;47.814;11.134;2023-04-03T06:55:37;5.20;90.20
1812;DHT22;904;47.814;11.134;2023-04-03T06:58:06;5.20;90.00
1812;DHT22;904;47.814;11.134;2023-04-03T07:00:33;5.20;90.20
1812;DHT22;904;47.814;11.134;2023-04-03T07:03:01;5.20;90.00
1812;DHT22;904;47.814;11.134;2023-04-03T07:05:28;5.20;89.80
1812;DHT22;904;47.814;11.134;2023-04-03T07:07:58;5.30;89.30
1812;DHT22;904;47.814;11.134;2023-04-03T07:10:27;5.30;89.70
1812;DHT22;904;47.814;11.134;2023-04-03T07:12:54;5.30;90.10
1812;DHT22;904;47.814;11.134;2023-04-03T07:15:22;5.30;89.70
1812;DHT22;904;47.814;11.134;2023-04-03T07:17:50;5.30;88.90
1812;DHT22;904;47.814;11.134;2023-04-03T07:20:17;5.40;88.90
1812;DHT22;904;47.814;11.134;2023-04-03T07:22:49;5.40;88.40
1812;DHT22;904;47.814;11.134;2023-04-03T07:25:16;5.40;88.10
1812;DHT22;904;47.814;11.134;2023-04-03T07:27:43;5.50;88.60
1812;DHT22;904;47.814;11.134;2023-04-03T07:30:11;5.50;89.10
1812;DHT22;904;47.814;11.134;2023-04-03T07:32:41;5.50;88.90
1812;DHT22;904;47.814;11.134;2023-04-03T07:35:08;5.50;88.40
1812;DHT22;904;47.814;11.134;2023-04-03T07:37:35;5.60;88.30
1812;DHT22;904;47.814;11.134;2023-04-03T07:40:02;5.60;88.20
1812;DHT22;904;47.814;11.134;2023-04-03T07:42:30;5.70;87.70
1812;DHT22;904;47.814;11.134;2023-04-03T07:44:57;5.70;86.40
1812;DHT22;904;47.814;11.134;2023-04-03T07:47:24;5.80;85.30
1812;DHT22;904;47.814;11.134;2023-04-03T07:49:53;5.80;83.50
1812;DHT22;904;47.814;11.134;2023-04-03T07:52:20;5.90;83.30
1812;DHT22;904;47.814;11.134;2023-04-03T07:54:49;6.00;84.40
1812;DHT22;904;47.814;11.134;2023-04-03T07:57:16;6.10;84.20
1812;DHT22;904;47.814;11.134;2023-04-03T07:59:43;6.20;83.70
1812;DHT22;904;47.814;11.134;2023-04-03T08:02:10;6.40;83.60
1812;DHT22;904;47.814;11.134;2023-04-03T08:04:37;6.60;84.30
1812;DHT22;904;47.814;11.134;2023-04-03T08:07:05;6.80;84.20
1812;DHT22;904;47.814;11.134;2023-04-03T08:09:32;7.00;83.10
1812;DHT22;904;47.814;11.134;2023-04-03T08:12:00;7.20;82.90
1812;DHT22;904;47.814;11.134;2023-04-03T08:14:30;7.40;79.80
1812;DHT22;904;47.814;11.134;2023-04-03T08:17:00;7.60;78.10
1812;DHT22;904;47.814;11.134;2023-04-03T08:19:33;7.70;75.20
1812;DHT22;904;47.814;11.134;2023-04-03T08:22:00;7.80;74.90
1812;DHT22;904;47.814;11.134;2023-04-03T08:24:30;7.80;73.40
1812;DHT22;904;47.814;11.134;2023-04-03T08:26:57;8.10;72.20
1812;DHT22;904;47.814;11.134;2023-04-03T08:29:24;8.20;72.00
1812;DHT22;904;47.814;11.134;2023-04-03T08:31:56;8.30;72.40
1812;DHT22;904;47.814;11.134;2023-04-03T08:34:26;8.30;69.30
1812;DHT22;904;47.814;11.134;2023-04-03T08:36:54;8.30;68.80
1812;DHT22;904;47.814;11.134;2023-04-03T08:39:21;8.40;70.90
1812;DHT22;904;47.814;11.134;2023-04-03T08:41:50;8.50;71.20
1812;DHT22;904;47.814;11.134;2023-04-03T08:44:25;8.50;68.60
1812;DHT22;904;47.814;11.134;2023-04-03T08:47:13;8.50;67.70
1812;DHT22;904;47.814;11.134;2023-04-03T08:49:45;8.60;66.80
1812;DHT22;904;47.814;11.134;2023-04-03T08:52:19;8.70;67.30
1812;DHT22;904;47.814;11.134;2023-04-03T08:54:53;8.80;68.10
1812;DHT22;904;47.814;11.134;2023-04-03T08:57:29;9.00;67.90
1812;DHT22;904;47.814;11.134;2023-04-03T08:59:58;9.20;66.50
1812;DHT22;904;47.814;11.134;2023-04-03T09:02:31;9.20;66.00
1812;DHT22;904;47.814;11.134;2023-04-03T09:05:00;9.30;66.00
1812;DHT22;904;47.814;11.134;2023-04-03T09:07:35;9.40;64.20
1812;DHT22;904;47.814;11.134;2023-04-03T09:10:04;9.40;64.10
1812;DHT22;904;47.814;11.134;2023-04-03T09:12:37;9.30;62.30
1812;DHT22;904;47.814;11.134;2023-04-03T09:15:15;9.40;62.20
1812;DHT22;904;47.814;11.134;2023-04-03T09:17:53;9.50;63.60
1812;DHT22;904;47.814;11.134;2023-04-03T09:20:29;9.50;60.00
1812;DHT22;904;47.814;11.134;2023-04-03T09:23:00;9.70;59.30
1812;DHT22;904;47.814;11.134;2023-04-03T09:25:31;9.70;59.30
1812;DHT22;904;47.814;11.134;2023-04-03T09:28:01;9.60;60.30
1812;DHT22;904;47.814;11.134;2023-04-03T09:30:29;9.70;60.80
1812;DHT22;904;47.814;11.134;2023-04-03T09:32:57;10.10;59.20
1812;DHT22;904;47.814;11.134;2023-04-03T09:35:26;10.50;58.30
1812;DHT22;904;47.814;11.134;2023-04-03T09:37:58;10.70;56.40
1812;DHT22;904;47.814;11.134;2023-04-03T09:40:31;10.90;54.60
1812;DHT22;904;47.814;11.134;2023-04-03T09:43:08;11.00;54.70
1812;DHT22;904;47.814;11.134;2023-04-03T09:45:47;10.70;53.50
1812;DHT22;904;47.814;11.134;2023-04-03T09:48:17;10.50;53.90
1812;DHT22;904;47.814;11.134;2023-04-03T09:50:58;10.50;54.50
1812;DHT22;904;47.814;11.134;2023-04-03T09:53:34;10.40;55.60
1812;DHT22;904;47.814;11.134;2023-04-03T09:56:04;10.40;55.10
1812;DHT22;904;47.814;11.134;2023-04-03T09:58:38;10.50;55.10
1812;DHT22;904;47.814;11.134;2023-04-03T10:01:06;10.50;53.10
1812;DHT22;904;47.814;11.134;2023-04-03T10:03:34;10.50;53.10
1812;DHT22;904;47.814;11.134;2023-04-03T10:06:03;10.50;54.10
1812;DHT22;904;47.814;11.134;2023-04-03T10:08:32;10.40;54.80
1812;DHT22;904;47.814;11.134;2023-04-03T10:11:08;10.20;55.10
1812;DHT22;904;47.814;11.134;2023-04-03T10:13:49;10.10;54.90
1812;DHT22;904;47.814;11.134;2023-04-03T10:16:18;10.00;54.70
1812;DHT22;904;47.814;11.134;2023-04-03T10:18:51;10.00;54.10
1812;DHT22;904;47.814;11.134;2023-04-03T10:21:32;10.00;53.00
1812;DHT22;904;47.814;11.134;2023-04-03T10:24:06;9.90;54.90
1812;DHT22;904;47.814;11.134;2023-04-03T10:26:41;10.10;54.10
1812;DHT22;904;47.814;11.134;2023-04-03T10:29:22;10.50;53.70
1812;DHT22;904;47.814;11.134;2023-04-03T10:31:57;11.40;52.80
1812;DHT22;904;47.814;11.134;2023-04-03T10:34:29;12.50;49.90
1812;DHT22;904;47.814;11.134;2023-04-03T10:37:01;13.00;47.00
1812;DHT22;904;47.814;11.134;2023-04-03T10:39:39;12.80;46.60
1812;DHT22;904;47.814;11.134;2023-04-03T10:42:13;12.50;45.70
1812;DHT22;904;47.814;11.134;2023-04-03T10:44:52;12.20;47.10
1812;DHT22;904;47.814;11.134;2023-04-03T10:47:24;11.80;47.30
1812;DHT22;904;47.814;11.134;2023-04-03T10:49:56;11.60;47.10
1812;DHT22;904;47.814;11.134;2023-04-03T10:52:31;11.40;47.10
1812;DHT22;904;47.814;11.134;2023-04-03T10:55:09;11.40;47.10
1812;DHT22;904;47.814;11.134;2023-04-03T10:57:40;11.40;47.00
1812;DHT22;904;47.814;11.134;2023-04-03T11:00:16;11.20;46.90
1812;DHT22;904;47.814;11.134;2023-04-03T11:02:49;11.10;48.00
1812;DHT22;904;47.814;11.134;2023-04-03T11:05:25;11.20;48.90
1812;DHT22;904;47.814;11.134;2023-04-03T11:07:54;11.20;47.30
1812;DHT22;904;47.814;11.134;2023-04-03T11:10:25;11.30;47.60
1812;DHT22;904;47.814;11.134;2023-04-03T11:12:59;11.50;48.60
1812;DHT22;904;47.814;11.134;2023-04-03T11:15:32;11.90;48.40
1812;DHT22;904;47.814;11.134;2023-04-03T11:18:02;12.10;48.20
1812;DHT22;904;47.814;11.134;2023-04-03T11:20:33;11.90;45.70
1812;DHT22;904;47.814;11.134;2023-04-03T11:23:05;11.60;44.80
1812;DHT22;904;47.814;11.134;2023-04-03T11:25:34;11.40;45.90
1812;DHT22;904;47.814;11.134;2023-04-03T11:28:05;11.30;46.70
1812;DHT22;904;47.814;11.134;2023-04-03T11:30:41;11.10;45.60
1812;DHT22;904;47.814;11.134;2023-04-03T11:33:28;10.90;46.00
1812;DHT22;904;47.814;11.134;2023-04-03T11:36:00;10.80;43.90
1812;DHT22;904;47.814;11.134;2023-04-03T11:38:33;10.60;45.50
1812;DHT22;904;47.814;11.134;2023-04-03T11:41:05;10.50;45.50
1812;DHT22;904;47.814;11.134;2023-04-03T11:43:33;10.40;46.60
1812;DHT22;904;47.814;11.134;2023-04-03T11:46:08;10.30;46.50
1812;DHT22;904;47.814;11.134;2023-04-03T11:48:49;10.20;47.10
1812;DHT22;904;47.814;11.134;2023-04-03T11:51:42;10.20;47.50
1812;DHT22;904;47.814;11.134;2023-04-03T12:00:51;11.30;45.30
1812;DHT22;904;47.814;11.134;2023-04-03T12:09:26;12.10;45.40
1812;DHT22;904;47.814;11.134;2023-04-03T12:11:53;12.10;44.80
1812;DHT22;904;47.814;11.134;2023-04-03T12:14:23;12.10;44.40
1812;DHT22;904;47.814;11.134;2023-04-03T12:16:52;12.10;44.10
1812;DHT22;904;47.814;11.134;2023-04-03T12:19:31;12.10;44.50
1812;DHT22;904;47.814;11.134;2023-04-03T12:22:17;12.10;43.20
1812;DHT22;904;47.814;11.134;2023-04-03T12:24:47;12.00;43.50
1812;DHT22;904;47.814;11.134;2023-04-03T12:27:33;12.00;44.10
1812;DHT22;904;47.814;11.134;2023-04-03T12:30:22;11.90;43.60
1812;DHT22;904;47.814;11.134;2023-04-03T12:33:04;11.80;43.60
1812;DHT22;904;47.814;11.134;2023-04-03T12:35:40;11.80;43.70
1812;DHT22;904;47.814;11.134;2023-04-03T12:41:22;12.00;42.80
1812;DHT22;904;47.814;11.134;2023-04-03T12:44:06;11.70;43.10
1812;DHT22;904;47.814;11.134;2023-04-03T12:46:43;11.20;44.70
1812;DHT22;904;47.814;11.134;2023-04-03T12:49:26;11.00;44.80
1812;DHT22;904;47.814;11.134;2023-04-03T12:51:58;10.80;44.60
1812;DHT22;904;47.814;11.134;2023-04-03T12:54:29;10.80;44.40
1812;DHT22;904;47.814;11.134;2023-04-03T12:57:10;10.60;44.70
1812;DHT22;904;47.814;11.134;2023-04-03T12:59:37;10.60;46.40
1812;DHT22;904;47.814;11.134;2023-04-03T13:02:20;10.50;45.60
1812;DHT22;904;47.814;11.134;2023-04-03T13:04:49;10.50;46.80
1812;DHT22;904;47.814;11.134;2023-04-03T13:07:23;10.40;47.20
1812;DHT22;904;47.814;11.134;2023-04-03T13:10:00;10.30;48.10
1812;DHT22;904;47.814;11.134;2023-04-03T13:12:28;10.40;46.80
1812;DHT22;904;47.814;11.134;2023-04-03T13:14:58;10.40;46.60
1812;DHT22;904;47.814;11.134;2023-04-03T13:17:30;10.40;46.60
1812;DHT22;904;47.814;11.134;2023-04-03T13:20:11;10.50;45.80
1812;DHT22;904;47.814;11.134;2023-04-03T13:22:46;10.50;44.10
1812;DHT22;904;47.814;11.134;2023-04-03T13:25:16;10.50;45.10
1812;DHT22;904;47.814;11.134;2023-04-03T13:27:44;10.60;45.60
1812;DHT22;904;47.814;11.134;2023-04-03T13:30:23;10.70;44.80
1812;DHT22;904;47.814;11.134;2023-04-03T13:32:52;10.80;44.10
1812;DHT22;904;47.814;11.134;2023-04-03T13:35:29;10.90;45.90
1812;DHT22;904;47.814;11.134;2023-04-03T13:38:00;11.10;44.00
1812;DHT22;904;47.814;11.134;2023-04-03T13:40:28;11.20;44.40
1812;DHT22;904;47.814;11.134;2023-04-03T13:43:14;11.30;44.90
1812;DHT22;904;47.814;11.134;2023-04-03T13:45:59;11.30;44.00
1812;DHT22;904;47.814;11.134;2023-04-03T13:48:27;11.40;43.40
1812;DHT22;904;47.814;11.134;2023-04-03T13:51:05;11.30;43.60
1812;DHT22;904;47.814;11.134;2023-04-03T13:53:43;11.30;43.30
1812;DHT22;904;47.814;11.134;2023-04-03T13:56:18;11.30;43.00
1812;DHT22;904;47.814;11.134;2023-04-03T13:58:54;11.40;43.50
1812;DHT22;904;47.814;11.134;2023-04-03T14:01:23;11.40;42.00
1812;DHT22;904;47.814;11.134;2023-04-03T14:03:55;11.30;42.60
1812;DHT22;904;47.814;11.134;2023-04-03T14:06:22;11.10;43.30
1812;DHT22;904;47.814;11.134;2023-04-03T14:08:52;11.00;43.80
1812;DHT22;904;47.814;11.134;2023-04-03T14:11:21;10.90;43.70
1812;DHT22;904;47.814;11.134;2023-04-03T14:13:49;10.90;43.70
1812;DHT22;904;47.814;11.134;2023-04-03T14:16:19;10.80;42.70
1812;DHT22;904;47.814;11.134;2023-04-03T14:18:48;10.70;43.90
1812;DHT22;904;47.814;11.134;2023-04-03T14:21:17;10.70;43.90
1812;DHT22;904;47.814;11.134;2023-04-03T14:23:45;10.70;43.90
1812;DHT22;904;47.814;11.134;2023-04-03T14:26:15;10.80;43.70
1812;DHT22;904;47.814;11.134;2023-04-03T14:28:43;10.80;43.10
1812;DHT22;904;47.814;11.134;2023-04-03T14:31:11;10.80;43.10
1812;DHT22;904;47.814;11.134;2023-04-03T14:33:39;10.80;42.40
1812;DHT22;904;47.814;11.134;2023-04-03T14:36:12;10.80;42.50
1812;DHT22;904;47.814;11.134;2023-04-03T14:38:40;10.70;42.00
1812;DHT22;904;47.814;11.134;2023-04-03T14:41:07;10.60;41.50
1812;DHT22;904;47.814;11.134;2023-04-03T14:43:36;10.40;41.70
1812;DHT22;904;47.814;11.134;2023-04-03T14:46:04;10.30;42.30
1812;DHT22;904;47.814;11.134;2023-04-03T14:48:32;10.20;42.20
1812;DHT22;904;47.814;11.134;2023-04-03T14:51:03;10.20;41.70
1812;DHT22;904;47.814;11.134;2023-04-03T14:53:30;10.10;41.00
1812;DHT22;904;47.814;11.134;2023-04-03T14:55:58;10.00;41.70
1812;DHT22;904;47.814;11.134;2023-04-03T14:58:25;10.00;41.20
1812;DHT22;904;47.814;11.134;2023-04-03T15:00:53;10.00;40.60
1812;DHT22;904;47.814;11.134;2023-04-03T15:03:21;9.90;41.10
1812;DHT22;904;47.814;11.134;2023-04-03T15:05:49;9.80;42.40
1812;DHT22;904;47.814;11.134;2023-04-03T15:08:25;9.70;43.30
1812;DHT22;904;47.814;11.134;2023-04-03T15:10:55;9.60;43.50
1812;DHT22;904;47.814;11.134;2023-04-03T15:13:22;9.40;43.90
1812;DHT22;904;47.814;11.134;2023-04-03T15:15:50;9.30;43.40
1812;DHT22;904;47.814;11.134;2023-04-03T15:18:21;9.20;44.10
1812;DHT22;904;47.814;11.134;2023-04-03T15:20:49;9.10;44.50
1812;DHT22;904;47.814;11.134;2023-04-03T15:23:16;9.10;44.70
1812;DHT22;904;47.814;11.134;2023-04-03T15:25:44;9.00;44.60
1812;DHT22;904;47.814;11.134;2023-04-03T15:28:18;8.90;44.60
1812;DHT22;904;47.814;11.134;2023-04-03T15:30:46;8.90;44.30
1812;DHT22;904;47.814;11.134;2023-04-03T15:33:13;8.80;44.90
1812;DHT22;904;47.814;11.134;2023-04-03T15:35:42;8.70;44.90
1812;DHT22;904;47.814;11.134;2023-04-03T15:38:09;8.60;45.00
1812;DHT22;904;47.814;11.134;2023-04-03T15:40:37;8.60;46.00
1812;DHT22;904;47.814;11.134;2023-04-03T15:43:04;8.60;45.70
1812;DHT22;904;47.814;11.134;2023-04-03T15:45:33;8.60;45.30
1812;DHT22;904;47.814;11.134;2023-04-03T15:48:03;8.60;45.90
1812;DHT22;904;47.814;11.134;2023-04-03T15:50:31;8.60;45.60
1812;DHT22;904;47.814;11.134;2023-04-03T15:52:59;8.60;45.70
1812;DHT22;904;47.814;11.134;2023-04-03T15:55:29;8.60;46.40
1812;DHT22;904;47.814;11.134;2023-04-03T15:57:57;8.50;46.40
1812;DHT22;904;47.814;11.134;2023-04-03T16:00:25;8.50;44.70
1812;DHT22;904;47.814;11.134;2023-04-03T16:02:54;8.30;44.40
1812;DHT22;904;47.814;11.134;2023-04-03T16:05:23;8.10;45.40
1812;DHT22;904;47.814;11.134;2023-04-03T16:07:51;7.90;45.90
1812;DHT22;904;47.814;11.134;2023-04-03T16:10:21;7.70;46.10
1812;DHT22;904;47.814;11.134;2023-04-03T16:12:48;7.60;46.00
1812;DHT22;904;47.814;11.134;2023-04-03T16:15:15;7.60;46.40
1812;DHT22;904;47.814;11.134;2023-04-03T16:17:46;7.50;46.70
1812;DHT22;904;47.814;11.134;2023-04-03T16:20:16;7.40;47.40
1812;DHT22;904;47.814;11.134;2023-04-03T16:22:44;7.40;46.90
1812;DHT22;904;47.814;11.134;2023-04-03T16:25:11;7.30;46.90
1812;DHT22;904;47.814;11.134;2023-04-03T16:27:40;7.30;46.90
1812;DHT22;904;47.814;11.134;2023-04-03T16:30:08;7.20;45.50
1812;DHT22;904;47.814;11.134;2023-04-03T16:32:38;7.10;45.60
1812;DHT22;904;47.814;11.134;2023-04-03T16:35:06;7.10;45.70
1812;DHT22;904;47.814;11.134;2023-04-03T16:37:34;7.10;45.50
1812;DHT22;904;47.814;11.134;2023-04-03T16:40:01;7.10;46.10
1812;DHT22;904;47.814;11.134;2023-04-03T16:42:29;7.10;45.90
1812;DHT22;904;47.814;11.134;2023-04-03T16:44:57;7.00;46.00
1812;DHT22;904;47.814;11.134;2023-04-03T16:47:25;7.00;45.60
1812;DHT22;904;47.814;11.134;2023-04-03T16:49:57;6.90;46.20